Latest Weather Observations for Mandora

IDW60801

Issued at 8:04 am WST Wednesday 24 May 2017 (issued every 30 minutes, with the page automatically refreshed every 10 minutes)

About weather observations | Map of weather stations | Latest weather observations for WA | Other Formats
Station Details ID: 004019 Name: MANDORA Lat: -19.74 Lon: 120.84 Height: 7.5 m
Data from the previous 72 hours. | See also: Recent months at Mandora
Date/Time
WST
Temp
°C
App
Temp
°C
Dew
Point
°C
Rel
Hum
%
Delta-T
°C
Wind Press
QNH
hPa
Press
MSL
hPa
Rain since
9am
mm
Dir  Spd
km/h
Gust
km/h
Spd
kts
Gust
kts
24/08:00am 24.2 20.6 8.2 36 8.5 SE 17 28 9 15 1015.4 1015.3 0.0
24/07:30am 22.7 19.1 8.4 40 7.6 SE 17 24 9 13 1015.2 1015.1 0.0
24/07:00am 20.8 18.0 8.4 45 6.5 SE 13 20 7 11 1014.9 1014.8 0.0
24/06:30am 20.1 17.3 8.4 47 6.1 SE 13 20 7 11 1014.8 1014.7 0.0
24/06:00am 20.1 17.6 8.4 47 6.1 SSE 11 17 6 9 1014.6 1014.5 0.0
24/05:30am 20.4 17.9 8.4 46 6.3 SE 11 15 6 8 1014.3 1014.2 0.0
24/05:00am 21.2 18.7 8.1 43 6.8 SE 11 19 6 10 1014.1 1014.0 0.0
24/04:30am 21.9 19.0 8.1 41 7.2 SE 13 20 7 11 1013.9 1013.8 0.0
24/04:00am 22.5 19.2 7.9 39 7.6 SE 15 24 8 13 1013.8 1013.7 0.0
24/03:30am 22.4 19.5 8.1 40 7.5 SE 13 22 7 12 1013.9 1013.8 0.0
24/03:00am 22.5 19.6 8.2 40 7.5 SE 13 20 7 11 1014.0 1013.9 0.0
24/02:30am 22.2 19.3 8.3 41 7.3 SSE 13 19 7 10 1014.0 1013.9 0.0
24/02:00am 22.0 19.6 8.5 42 7.1 SSE 11 17 6 9 1014.0 1013.9 0.0
24/01:30am 22.0 19.2 8.5 42 7.1 SSE 13 17 7 9 1014.2 1014.1 0.0
24/01:00am 22.2 19.4 8.7 42 7.2 SE 13 19 7 10 1014.3 1014.2 0.0
24/12:30am 22.2 19.9 9.0 43 7.0 SSE 11 15 6 8 1014.6 1014.5 0.0
24/12:00am 22.6 20.3 9.0 42 7.3 SSE 11 15 6 8 1014.7 1014.6 0.0
 
Date/Time
WST
Temp
°C
App
Temp
°C
Dew
Point
°C
Rel
Hum
%
Delta-T
°C
Wind Press
QNH
hPa
Press
MSL
hPa
Rain since
9am
mm
Dir  Spd
km/h
Gust
km/h
Spd
kts
Gust
kts
23/11:30pm 23.3 21.0 9.0 40 7.7 SSE 11 19 6 10 1014.9 1014.8 0.0
23/11:00pm 23.2 20.6 9.2 41 7.5 SSE 13 17 7 9 1015.0 1014.9 0.0
23/10:30pm 22.7 20.5 9.5 43 7.1 SSE 11 15 6 8 1015.0 1014.9 0.0
23/10:00pm 22.5 20.4 9.6 44 7.0 SSE 11 15 6 8 1015.0 1014.9 0.0
23/09:30pm 22.6 20.3 10.4 46 6.7 SSE 13 17 7 9 1015.0 1014.9 0.0
23/09:00pm 23.2 20.9 10.6 45 6.9 SSE 13 19 7 10 1014.9 1014.8 0.0
23/08:30pm 23.7 20.8 11.1 45 7.0 SSE 17 20 9 11 1014.7 1014.6 0.0
23/08:00pm 22.8 21.3 11.8 50 6.2 SSE 11 13 6 7 1014.6 1014.5 0.0
23/07:30pm 21.9 21.0 12.5 55 5.3 SW 9 11 5 6 1014.3 1014.2 0.0
23/07:00pm 22.8 22.1 13.3 55 5.5 SW 9 9 5 5 1014.1 1014.0 0.0
23/06:30pm 23.5 23.0 13.7 54 5.7 WSW 9 11 5 6 1013.8 1013.7 0.0
23/06:00pm 24.5 23.7 11.8 45 7.2 WSW 7 11 4 6 1013.6 1013.5 0.0
23/05:30pm 26.7 25.0 10.0 35 9.3 WNW 9 11 5 6 1013.2 1013.1 0.0
23/05:00pm 29.4 27.7 10.0 30 10.9 WNW 9 13 5 7 1012.7 1012.6 0.0
23/04:30pm 31.6 30.0 10.3 27 12.2 W 9 13 5 7 1012.3 1012.2 0.0
23/04:00pm 33.6 32.2 9.6 23 13.7 SE 7 13 4 7 1012.2 1012.1 0.0
23/03:30pm 33.4 31.6 9.4 23 13.7 S 9 17 5 9 1012.2 1012.1 0.0
23/03:00pm 33.4 31.4 8.8 22 13.9 SE 9 13 5 7 1012.4 1012.3 0.0
23/02:30pm 33.8 31.9 9.1 22 14.0 SE 9 13 5 7 1012.4 1012.3 0.0
23/02:00pm 33.5 31.0 8.2 21 14.1 SSE 11 17 6 9 1012.7 1012.6 0.0
23/01:30pm 33.3 30.8 8.0 21 14.1 SE 11 20 6 11 1013.0 1012.9 0.0
23/01:00pm 33.0 30.0 7.8 21 13.9 SE 13 19 7 10 1013.5 1013.4 0.0
23/12:30pm 32.7 30.0 8.9 23 13.4 SE 13 22 7 12 1013.9 1013.8 0.0
23/12:00pm 32.5 29.7 8.7 23 13.3 ESE 13 22 7 12 1014.6 1014.5 0.0
23/11:30am 31.2 27.6 8.2 24 12.7 SE 17 28 9 15 1015.0 1014.9 0.0
23/11:00am 30.9 27.9 9.2 26 12.1 SE 15 28 8 15 1015.5 1015.4 0.0
23/10:30am 29.1 25.5 8.2 27 11.4 SE 17 26 9 14 1015.9 1015.8 0.0
23/10:00am 28.3 25.1 8.6 29 10.8 ESE 15 24 8 13 1016.3 1016.2 0.0
23/09:30am 26.9 23.0 8.8 32 9.9 SE 19 28 10 15 1016.4 1016.3 0.0
23/09:00am 25.7 21.5 8.2 33 9.4 ESE 20 30 11 16 1016.5 1016.4 0.0
23/08:30am 24.6 20.9 8.1 35 8.8 SE 17 28 9 15 1016.3 1016.2 0.0
23/08:00am 23.0 19.3 7.9 38 7.9 SE 17 28 9 15 1016.1 1016.0 0.0
23/07:30am 21.2 18.3 8.1 43 6.8 SE 13 24 7 13 1015.7 1015.6 0.0
23/07:00am 19.4 16.5 8.1 48 5.8 SSE 13 20 7 11 1015.5 1015.4 0.0
23/06:30am 18.0 15.2 8.6 54 4.9 SSE 13 19 7 10 1015.3 1015.2 0.0
23/06:00am 16.4 14.5 8.9 61 3.9 SSE 9 13 5 7 1015.2 1015.1 0.0
23/05:30am 16.0 14.1 9.2 64 3.5 SSE 9 11 5 6 1014.9 1014.8 0.0
23/05:00am 16.6 15.2 9.5 63 3.7 SSE 7 11 4 6 1014.8 1014.7 0.0
23/04:30am 16.8 15.2 10.2 65 3.5 SE 9 11 5 6 1014.7 1014.6 0.0
23/04:00am 17.2 15.5 11.2 68 3.2 SE 11 13 6 7 1014.6 1014.5 0.0
23/03:30am 17.7 16.8 12.6 72 2.8 SSE 9 15 5 8 1014.4 1014.3 0.0
23/03:00am 17.7 17.2 14.8 83 1.7 S 11 15 6 8 1014.4 1014.3 0.0
23/02:30am 17.5 17.3 15.7 89 1.1 SSW 11 13 6 7 1014.6 1014.5 0.0
23/02:00am 17.7 17.6 15.9 89 1.1 S 11 13 6 7 1014.7 1014.6 0.0
23/01:30am 17.6 17.4 15.6 88 1.2 S 11 13 6 7 1014.7 1014.6 0.0
23/01:00am 18.1 18.0 16.1 88 1.2 S 11 15 6 8 1014.8 1014.7 0.0
23/12:30am 18.1 18.1 16.3 89 1.1 S 11 13 6 7 1014.7 1014.6 0.0
23/12:00am 18.2 18.6 16.4 89 1.1 SSW 9 11 5 6 1014.9 1014.8 0.0
 
Date/Time
WST
Temp
°C
App
Temp
°C
Dew
Point
°C
Rel
Hum
%
Delta-T
°C
Wind Press
QNH
hPa
Press
MSL
hPa
Rain since
9am
mm
Dir  Spd
km/h
Gust
km/h
Spd
kts
Gust
kts
22/11:30pm 18.5 19.1 16.7 89 1.1 S 9 11 5 6 1015.1 1015.0 0.0
22/11:00pm 18.6 19.2 16.9 90 1.0 S 9 11 5 6 1015.0 1014.9 0.0
22/10:30pm 18.7 19.0 17.0 90 1.0 SSW 11 13 6 7 1015.0 1014.9 0.0
22/10:00pm 19.0 19.4 17.3 90 1.0 SSW 11 11 6 6 1015.0 1014.9 0.0
22/09:30pm 19.1 19.6 17.4 90 1.0 SW 11 11 6 6 1014.8 1014.7 0.0
22/09:00pm 19.3 20.2 17.6 90 1.0 SW 9 9 5 5 1014.8 1014.7 0.0
22/08:30pm 19.5 20.4 17.6 89 1.2 SW 9 11 5 6 1014.6 1014.5 0.0
22/08:00pm 19.5 20.6 17.1 86 1.5 SW 7 9 4 5 1014.2 1014.1 0.0
22/07:30pm 20.6 22.3 18.4 87 1.4 WSW 7 9 4 5 1014.0 1013.9 0.0
22/07:00pm 21.4 22.9 18.8 85 1.6 WSW 9 9 5 5 1013.6 1013.5 0.0
22/06:30pm 21.7 23.0 18.5 82 2.0 W 9 9 5 5 1013.3 1013.2 0.0
22/06:00pm 22.7 24.4 18.5 77 2.6 W 7 7 4 4 1013.0 1012.9 0.0
22/05:30pm 24.1 25.8 18.5 71 3.5 NW 7 9 4 5 1012.8 1012.7 0.0
22/05:00pm 25.5 26.6 17.9 63 4.8 NNW 9 15 5 8 1012.6 1012.5 0.0
22/04:30pm 26.9 27.2 17.1 55 6.1 NW 11 17 6 9 1012.2 1012.1 0.0
22/04:00pm 27.4 27.3 17.0 53 6.5 NW 13 19 7 10 1012.1 1012.0 0.0
22/03:30pm 28.1 27.9 16.7 50 7.1 NW 13 17 7 9 1012.0 1011.9 0.0
22/03:00pm 29.3 29.1 16.8 47 7.8 NW 13 19 7 10 1012.1 1012.0 0.0
22/02:30pm 29.5 29.0 17.0 47 7.9 NW 15 20 8 11 1012.1 1012.0 0.0
22/02:00pm 30.2 30.3 16.6 44 8.5 NNW 11 20 6 11 1012.3 1012.2 0.0
22/01:30pm 32.5 31.6 10.5 26 12.7 ENE 6 7 3 4 1012.5 1012.4 0.0
22/01:00pm 32.2 30.5 8.4 23 13.3 SSE 7 11 4 6 1012.9 1012.8 0.0
22/12:30pm 31.5 29.5 8.5 24 12.8 SSE 9 19 5 10 1013.4 1013.3 0.0
22/12:00pm 30.8 29.2 10.2 28 11.7 SE 9 15 5 8 1013.8 1013.7 0.0
22/11:30am 30.1 27.7 10.1 29 11.3 S 13 22 7 12 1014.2 1014.1 0.0
22/11:00am 29.7 27.8 11.7 33 10.4 S 13 20 7 11 1014.8 1014.7 0.0
22/10:30am 28.3 27.0 13.8 41 8.6 SSW 13 20 7 11 1015.2 1015.1 0.0
22/10:00am 27.8 27.4 16.1 49 7.2 S 13 20 7 11 1015.5 1015.4 0.0
22/09:30am 27.1 26.9 16.7 53 6.5 SSW 13 20 7 11 1015.6 1015.5 0.0
22/09:00am 25.2 26.2 17.7 63 4.7 S 9 13 5 7 1015.8 1015.7 0.0
22/08:30am 22.9 24.5 17.8 73 3.2 SSE 6 11 3 6 1015.7 1015.6 0.0
22/08:00am 19.7 21.5 18.4 92 0.8 ESE 6 9 3 5 1015.5 1015.4 0.0
22/07:30am 16.3 16.9 15.3 94 0.6 SE 6 7 3 4 1015.1 1015.0 0.0
22/07:00am 14.0 13.8 13.1 94 0.5 ESE 6 7 3 4 1014.7 1014.6 0.0
22/06:30am 14.0 13.6 13.1 94 0.5 SE 7 11 4 6 1014.3 1014.2 0.0
22/06:00am 13.6 13.1 12.7 94 0.5 ESE 7 9 4 5 1014.0 1013.9 0.0
22/05:30am 13.3 12.7 12.2 93 0.6 SE 7 9 4 5 1013.6 1013.5 0.0
22/05:00am 13.1 12.4 12.0 93 0.6 E 7 9 4 5 1013.3 1013.2 0.0
22/04:30am 12.8 12.1 11.5 92 0.7 E 6 9 3 5 1013.1 1013.0 0.0
22/04:00am 13.4 12.3 12.0 91 0.8 ESE 9 11 5 6 1012.8 1012.7 0.0
22/03:30am 13.4 12.7 12.0 91 0.8 ESE 7 11 4 6 1012.6 1012.5 0.0
22/03:00am 13.6 13.0 12.2 91 0.8 SE 7 9 4 5 1012.6 1012.5 0.0
22/02:30am 13.7 12.7 12.3 91 0.8 SE 9 11 5 6 1012.4 1012.3 0.0
22/02:00am 14.6 14.2 13.1 91 0.8 E 7 9 4 5 1012.4 1012.3 0.0
22/01:30am 15.1 14.9 13.6 91 0.8 S 7 9 4 5 1012.3 1012.2 0.0
22/01:00am 15.9 15.6 14.3 90 0.9 SSE 9 11 5 6 1012.2 1012.1 0.0
22/12:30am 15.2 14.9 13.4 89 1.0 S 7 9 4 5 1012.4 1012.3 0.0
22/12:00am 15.3 14.6 13.3 88 1.1 SSE 9 11 5 6 1012.5 1012.4 0.0
 
Date/Time
WST
Temp
°C
App
Temp
°C
Dew
Point
°C
Rel
Hum
%
Delta-T
°C
Wind Press
QNH
hPa
Press
MSL
hPa
Rain since
9am
mm
Dir  Spd
km/h
Gust
km/h
Spd
kts
Gust
kts
21/11:30pm 15.0 14.2 13.0 88 1.1 SSE 9 11 5 6 1012.7 1012.6 0.0
21/11:00pm 14.9 14.1 12.8 87 1.2 SE 9 11 5 6 1012.7 1012.6 0.0
21/10:30pm 14.8 14.3 12.7 87 1.2 ESE 7 11 4 6 1012.7 1012.6 0.0
21/10:00pm 14.4 13.8 12.3 87 1.1 ESE 7 9 4 5 1012.8 1012.7 0.0
21/09:30pm 14.8 14.0 13.0 89 1.0 ENE 9 9 5 5 1012.9 1012.8 0.0
21/09:00pm 13.9 13.1 10.9 82 1.6 S 6 7 3 4 1012.8 1012.7 0.0
21/08:30pm 14.2 14.5 11.0 81 1.7 CALM 0 0 0 0 1012.6 1012.5 0.0
21/08:00pm 14.8 15.2 11.2 79 1.9 CALM 0 0 0 0 1012.6 1012.5 0.0
21/07:30pm 16.3 15.9 12.5 78 2.1 W 6 7 3 4 1012.2 1012.1 0.0
21/07:00pm 19.0 19.2 15.7 81 2.0 WNW 9 9 5 5 1011.8 1011.7 0.0
21/06:30pm 19.7 19.7 15.1 75 2.7 WNW 9 11 5 6 1011.3 1011.2 0.0
21/06:00pm 21.1 21.0 15.0 68 3.6 W 9 9 5 5 1010.9 1010.8 0.0
21/05:30pm 22.7 22.7 14.3 59 4.9 WNW 7 9 4 5 1010.5 1010.4 0.0
21/05:00pm 25.3 24.4 13.8 49 6.8 NW 11 15 6 8 1010.4 1010.3 0.0
21/04:30pm 26.8 24.7 9.6 34 9.5 NW 11 17 6 9 1010.1 1010.0 0.0
21/04:00pm 27.8 24.6 8.6 30 10.5 NNW 15 19 8 10 1009.9 1009.8 0.0
21/03:30pm 29.0 25.5 7.0 25 11.8 NNW 15 20 8 11 1009.7 1009.6 0.0
21/03:00pm 29.5 25.4 4.2 20 13.0 NNW 15 20 8 11 1009.5 1009.4 0.0
21/02:30pm 29.7 25.6 4.4 20 13.0 N 15 20 8 11 1009.5 1009.4 0.0
21/02:00pm 30.0 25.5 2.3 17 13.8 NNW 15 20 8 11 1009.4 1009.3 0.0
21/01:30pm 30.2 25.6 1.6 16 14.1 N 15 20 8 11 1009.5 1009.4 0.0
21/01:00pm 30.9 26.8 2.2 16 14.3 N 13 19 7 10 1009.6 1009.5 0.0
21/12:30pm 31.0 26.8 1.4 15 14.6 N 13 19 7 10 1010.2 1010.1 0.0
21/12:00pm 31.4 28.3 3.4 17 14.3 NE 9 13 5 7 1010.5 1010.4 0.0
21/11:30am 31.0 27.9 1.4 15 14.6 N 7 11 4 6 1010.9 1010.8 0.0
21/11:00am 29.6 26.6 2.0 17 13.6 ENE 7 11 4 6 1011.4 1011.3 0.0
21/10:30am 28.7 26.4 2.8 19 12.9 SSE 4 11 2 6 1011.9 1011.8 0.0
21/10:00am 26.4 24.0 4.2 24 11.1 SE 6 11 3 6 1012.2 1012.1 0.0
21/09:30am 25.2 22.9 4.9 27 10.2 SE 6 9 3 5 1012.3 1012.2 0.0
21/09:00am 23.6 20.8 5.0 30 9.3 SE 9 11 5 6 1012.3 1012.2 0.0
21/08:30am 22.0 19.5 6.7 37 7.8 SE 9 13 5 7 1012.0 1011.9 0.0

Other Formats:

Comma delimited format used in spreadsheet applications
http://www.bom.gov.au/fwo/IDW60801/IDW60801.94200.axf

JavaScript Object Notation format (JSON) in row-major order
http://www.bom.gov.au/fwo/IDW60801/IDW60801.94200.json